sensor_id;sensor_type;location;lat;lon;timestamp;P1;durP1;ratioP1;P2;durP2;ratioP2
36241;SDS011;22283;42.748;12.732;2023-03-20T00:02:36;26.33;;;15.57;;
36241;SDS011;22283;42.748;12.732;2023-03-20T00:07:37;28.53;;;17.30;;
36241;SDS011;22283;42.748;12.732;2023-03-20T00:12:38;28.20;;;16.80;;
36241;SDS011;22283;42.748;12.732;2023-03-20T00:17:39;29.60;;;16.30;;
36241;SDS011;22283;42.748;12.732;2023-03-20T00:22:39;20.77;;;14.93;;
36241;SDS011;22283;42.748;12.732;2023-03-20T00:27:41;21.17;;;14.10;;
36241;SDS011;22283;42.748;12.732;2023-03-20T00:32:43;23.95;;;13.23;;
36241;SDS011;22283;42.748;12.732;2023-03-20T00:37:44;20.75;;;13.57;;
36241;SDS011;22283;42.748;12.732;2023-03-20T00:42:50;24.15;;;12.45;;
36241;SDS011;22283;42.748;12.732;2023-03-20T00:47:56;27.33;;;12.63;;
36241;SDS011;22283;42.748;12.732;2023-03-20T00:52:58;21.38;;;13.05;;
36241;SDS011;22283;42.748;12.732;2023-03-20T00:58:00;20.80;;;12.35;;
36241;SDS011;22283;42.748;12.732;2023-03-20T01:03:05;16.45;;;11.10;;
36241;SDS011;22283;42.748;12.732;2023-03-20T01:08:22;26.48;;;11.90;;
36241;SDS011;22283;42.748;12.732;2023-03-20T01:13:29;26.60;;;14.27;;
36241;SDS011;22283;42.748;12.732;2023-03-20T01:18:30;24.33;;;12.65;;
36241;SDS011;22283;42.748;12.732;2023-03-20T01:23:31;22.33;;;12.63;;
36241;SDS011;22283;42.748;12.732;2023-03-20T01:28:32;19.30;;;11.67;;
36241;SDS011;22283;42.748;12.732;2023-03-20T01:33:32;21.20;;;12.57;;
36241;SDS011;22283;42.748;12.732;2023-03-20T01:38:33;22.03;;;13.80;;
36241;SDS011;22283;42.748;12.732;2023-03-20T01:43:34;22.53;;;14.50;;
36241;SDS011;22283;42.748;12.732;2023-03-20T01:54:10;21.50;;;13.32;;
36241;SDS011;22283;42.748;12.732;2023-03-20T02:04:45;19.90;;;12.70;;
36241;SDS011;22283;42.748;12.732;2023-03-20T02:09:50;29.23;;;13.38;;
36241;SDS011;22283;42.748;12.732;2023-03-20T02:14:59;24.10;;;15.23;;
36241;SDS011;22283;42.748;12.732;2023-03-20T02:20:40;24.67;;;16.08;;
36241;SDS011;22283;42.748;12.732;2023-03-20T02:59:11;19.45;;;11.25;;
36241;SDS011;22283;42.748;12.732;2023-03-20T03:04:02;25.10;;;10.15;;
36241;SDS011;22283;42.748;12.732;2023-03-20T03:14:55;14.35;;;9.35;;
36241;SDS011;22283;42.748;12.732;2023-03-20T03:20:02;21.30;;;11.27;;
36241;SDS011;22283;42.748;12.732;2023-03-20T03:25:09;16.10;;;9.25;;
36241;SDS011;22283;42.748;12.732;2023-03-20T03:30:20;15.07;;;9.57;;
36241;SDS011;22283;42.748;12.732;2023-03-20T03:35:28;15.85;;;10.35;;
36241;SDS011;22283;42.748;12.732;2023-03-20T03:40:32;18.08;;;10.77;;
36241;SDS011;22283;42.748;12.732;2023-03-20T03:45:44;22.70;;;10.82;;
36241;SDS011;22283;42.748;12.732;2023-03-20T03:50:52;21.35;;;9.77;;
36241;SDS011;22283;42.748;12.732;2023-03-20T03:55:59;18.13;;;9.23;;
36241;SDS011;22283;42.748;12.732;2023-03-20T04:01:04;19.63;;;9.35;;
36241;SDS011;22283;42.748;12.732;2023-03-20T04:06:13;18.42;;;9.48;;
36241;SDS011;22283;42.748;12.732;2023-03-20T04:11:16;15.45;;;7.28;;
36241;SDS011;22283;42.748;12.732;2023-03-20T04:16:19;16.52;;;8.30;;
36241;SDS011;22283;42.748;12.732;2023-03-20T04:21:22;13.80;;;7.45;;
36241;SDS011;22283;42.748;12.732;2023-03-20T04:26:25;16.10;;;7.72;;
36241;SDS011;22283;42.748;12.732;2023-03-20T04:31:26;15.18;;;8.02;;
36241;SDS011;22283;42.748;12.732;2023-03-20T04:36:48;17.42;;;8.35;;
36241;SDS011;22283;42.748;12.732;2023-03-20T04:41:50;14.70;;;7.78;;
36241;SDS011;22283;42.748;12.732;2023-03-20T04:46:52;17.48;;;10.10;;
36241;SDS011;22283;42.748;12.732;2023-03-20T04:57:08;23.75;;;9.77;;
36241;SDS011;22283;42.748;12.732;2023-03-20T05:02:13;17.13;;;9.80;;
36241;SDS011;22283;42.748;12.732;2023-03-20T05:07:15;17.35;;;10.48;;
36241;SDS011;22283;42.748;12.732;2023-03-20T05:12:31;26.17;;;12.23;;
36241;SDS011;22283;42.748;12.732;2023-03-20T05:17:42;22.80;;;11.27;;
36241;SDS011;22283;42.748;12.732;2023-03-20T05:23:12;19.25;;;12.95;;
36241;SDS011;22283;42.748;12.732;2023-03-20T05:28:23;20.77;;;12.82;;
36241;SDS011;22283;42.748;12.732;2023-03-20T05:33:40;19.52;;;13.63;;
36241;SDS011;22283;42.748;12.732;2023-03-20T05:38:50;22.20;;;14.43;;
36241;SDS011;22283;42.748;12.732;2023-03-20T05:44:19;15.77;;;11.38;;
36241;SDS011;22283;42.748;12.732;2023-03-20T05:49:38;21.38;;;11.05;;
36241;SDS011;22283;42.748;12.732;2023-03-20T05:54:40;13.90;;;10.48;;
36241;SDS011;22283;42.748;12.732;2023-03-20T06:00:03;15.00;;;11.02;;
36241;SDS011;22283;42.748;12.732;2023-03-20T06:05:13;13.70;;;10.07;;
36241;SDS011;22283;42.748;12.732;2023-03-20T06:10:23;15.05;;;10.55;;
36241;SDS011;22283;42.748;12.732;2023-03-20T06:15:25;12.38;;;9.30;;
36241;SDS011;22283;42.748;12.732;2023-03-20T06:20:34;15.73;;;9.00;;
36241;SDS011;22283;42.748;12.732;2023-03-20T06:25:37;11.95;;;8.98;;
36241;SDS011;22283;42.748;12.732;2023-03-20T06:30:38;17.23;;;9.20;;
36241;SDS011;22283;42.748;12.732;2023-03-20T06:35:41;18.30;;;10.32;;
36241;SDS011;22283;42.748;12.732;2023-03-20T06:40:42;14.73;;;9.30;;
36241;SDS011;22283;42.748;12.732;2023-03-20T06:45:45;14.55;;;9.10;;
36241;SDS011;22283;42.748;12.732;2023-03-20T06:51:00;16.75;;;10.18;;
36241;SDS011;22283;42.748;12.732;2023-03-20T06:56:09;17.08;;;9.43;;
36241;SDS011;22283;42.748;12.732;2023-03-20T07:01:14;11.88;;;9.30;;
36241;SDS011;22283;42.748;12.732;2023-03-20T07:06:17;15.95;;;10.45;;
36241;SDS011;22283;42.748;12.732;2023-03-20T07:11:18;16.57;;;10.23;;
36241;SDS011;22283;42.748;12.732;2023-03-20T07:16:19;16.77;;;12.25;;
36241;SDS011;22283;42.748;12.732;2023-03-20T07:21:20;13.53;;;7.57;;
36241;SDS011;22283;42.748;12.732;2023-03-20T07:26:22;14.30;;;8.90;;
36241;SDS011;22283;42.748;12.732;2023-03-20T07:31:25;18.35;;;11.38;;
36241;SDS011;22283;42.748;12.732;2023-03-20T07:36:54;20.58;;;12.63;;
36241;SDS011;22283;42.748;12.732;2023-03-20T07:41:56;18.15;;;13.13;;
36241;SDS011;22283;42.748;12.732;2023-03-20T07:47:10;23.63;;;17.65;;
36241;SDS011;22283;42.748;12.732;2023-03-20T07:52:11;25.67;;;17.60;;
36241;SDS011;22283;42.748;12.732;2023-03-20T07:57:11;34.17;;;20.97;;
36241;SDS011;22283;42.748;12.732;2023-03-20T08:02:16;34.70;;;23.00;;
36241;SDS011;22283;42.748;12.732;2023-03-20T08:07:17;28.98;;;22.70;;
36241;SDS011;22283;42.748;12.732;2023-03-20T08:12:17;29.60;;;21.47;;
36241;SDS011;22283;42.748;12.732;2023-03-20T08:17:18;29.67;;;22.20;;
36241;SDS011;22283;42.748;12.732;2023-03-20T08:22:18;30.73;;;23.33;;
36241;SDS011;22283;42.748;12.732;2023-03-20T08:27:19;28.53;;;23.70;;
36241;SDS011;22283;42.748;12.732;2023-03-20T08:32:20;37.90;;;25.23;;
36241;SDS011;22283;42.748;12.732;2023-03-20T08:37:21;29.40;;;23.53;;
36241;SDS011;22283;42.748;12.732;2023-03-20T08:42:21;26.13;;;22.37;;
36241;SDS011;22283;42.748;12.732;2023-03-20T08:47:22;24.10;;;20.13;;
36241;SDS011;22283;42.748;12.732;2023-03-20T08:52:23;28.60;;;21.43;;
36241;SDS011;22283;42.748;12.732;2023-03-20T08:57:23;27.30;;;22.37;;
36241;SDS011;22283;42.748;12.732;2023-03-20T09:02:24;26.30;;;21.13;;
36241;SDS011;22283;42.748;12.732;2023-03-20T09:07:24;20.57;;;18.00;;
36241;SDS011;22283;42.748;12.732;2023-03-20T09:12:25;20.17;;;18.00;;
36241;SDS011;22283;42.748;12.732;2023-03-20T09:17:26;11.57;;;8.47;;
36241;SDS011;22283;42.748;12.732;2023-03-20T09:22:26;6.33;;;3.70;;
36241;SDS011;22283;42.748;12.732;2023-03-20T09:27:27;9.60;;;5.23;;
36241;SDS011;22283;42.748;12.732;2023-03-20T09:32:28;6.60;;;4.93;;
36241;SDS011;22283;42.748;12.732;2023-03-20T09:37:29;6.85;;;4.60;;
36241;SDS011;22283;42.748;12.732;2023-03-20T09:42:38;5.40;;;3.80;;
36241;SDS011;22283;42.748;12.732;2023-03-20T09:47:50;8.18;;;5.28;;
36241;SDS011;22283;42.748;12.732;2023-03-20T09:53:02;4.63;;;2.50;;
36241;SDS011;22283;42.748;12.732;2023-03-20T09:58:11;4.80;;;3.38;;
36241;SDS011;22283;42.748;12.732;2023-03-20T10:03:17;5.55;;;3.03;;
36241;SDS011;22283;42.748;12.732;2023-03-20T10:08:21;6.18;;;3.47;;
36241;SDS011;22283;42.748;12.732;2023-03-20T10:18:36;4.22;;;3.10;;
36241;SDS011;22283;42.748;12.732;2023-03-20T10:23:46;3.00;;;2.10;;
36241;SDS011;22283;42.748;12.732;2023-03-20T10:28:58;2.88;;;1.20;;
36241;SDS011;22283;42.748;12.732;2023-03-20T10:44:38;1.65;;;1.00;;
36241;SDS011;22283;42.748;12.732;2023-03-20T10:49:42;3.30;;;1.83;;
36241;SDS011;22283;42.748;12.732;2023-03-20T10:54:52;1.58;;;0.90;;
36241;SDS011;22283;42.748;12.732;2023-03-20T10:59:58;3.20;;;0.73;;
36241;SDS011;22283;42.748;12.732;2023-03-20T11:04:59;1.70;;;0.90;;
36241;SDS011;22283;42.748;12.732;2023-03-20T11:20:17;1.70;;;1.00;;
36241;SDS011;22283;42.748;12.732;2023-03-20T11:25:21;9.57;;;6.70;;
36241;SDS011;22283;42.748;12.732;2023-03-20T11:30:27;10.40;;;6.53;;
36241;SDS011;22283;42.748;12.732;2023-03-20T11:35:29;10.47;;;5.43;;
36241;SDS011;22283;42.748;12.732;2023-03-20T11:40:31;15.48;;;8.43;;
36241;SDS011;22283;42.748;12.732;2023-03-20T11:45:33;9.52;;;4.85;;
36241;SDS011;22283;42.748;12.732;2023-03-20T11:50:37;10.18;;;5.60;;
36241;SDS011;22283;42.748;12.732;2023-03-20T11:55:59;3.87;;;1.93;;
36241;SDS011;22283;42.748;12.732;2023-03-20T12:01:03;3.13;;;1.50;;
36241;SDS011;22283;42.748;12.732;2023-03-20T12:06:36;1.70;;;0.90;;
36241;SDS011;22283;42.748;12.732;2023-03-20T12:11:46;2.70;;;1.17;;
36241;SDS011;22283;42.748;12.732;2023-03-20T12:16:52;2.05;;;1.20;;
36241;SDS011;22283;42.748;12.732;2023-03-20T12:22:17;1.95;;;1.17;;
36241;SDS011;22283;42.748;12.732;2023-03-20T12:27:24;4.00;;;2.67;;
36241;SDS011;22283;42.748;12.732;2023-03-20T12:37:36;2.22;;;1.10;;
36241;SDS011;22283;42.748;12.732;2023-03-20T12:58:25;4.57;;;1.73;;
36241;SDS011;22283;42.748;12.732;2023-03-20T13:13:55;4.38;;;1.92;;
36241;SDS011;22283;42.748;12.732;2023-03-20T13:19:02;2.88;;;1.90;;
36241;SDS011;22283;42.748;12.732;2023-03-20T13:24:15;4.45;;;2.90;;
36241;SDS011;22283;42.748;12.732;2023-03-20T13:29:27;9.57;;;3.08;;
36241;SDS011;22283;42.748;12.732;2023-03-20T14:00:54;6.55;;;3.35;;
36241;SDS011;22283;42.748;12.732;2023-03-20T14:11:44;13.90;;;7.75;;
36241;SDS011;22283;42.748;12.732;2023-03-20T14:16:44;7.73;;;3.40;;
36241;SDS011;22283;42.748;12.732;2023-03-20T14:21:45;8.47;;;4.13;;
36241;SDS011;22283;42.748;12.732;2023-03-20T14:26:53;10.32;;;3.50;;
36241;SDS011;22283;42.748;12.732;2023-03-20T14:37:04;7.15;;;3.53;;
36241;SDS011;22283;42.748;12.732;2023-03-20T14:48:01;10.00;;;3.30;;
36241;SDS011;22283;42.748;12.732;2023-03-20T14:53:20;7.88;;;4.07;;
36241;SDS011;22283;42.748;12.732;2023-03-20T15:03:39;7.47;;;4.18;;
36241;SDS011;22283;42.748;12.732;2023-03-20T15:08:43;10.52;;;6.18;;
36241;SDS011;22283;42.748;12.732;2023-03-20T15:13:49;14.73;;;8.60;;
36241;SDS011;22283;42.748;12.732;2023-03-20T15:18:52;8.30;;;4.10;;
36241;SDS011;22283;42.748;12.732;2023-03-20T15:28:55;8.65;;;2.75;;
36241;SDS011;22283;42.748;12.732;2023-03-20T15:34:01;7.10;;;2.90;;
36241;SDS011;22283;42.748;12.732;2023-03-20T15:49:18;9.87;;;5.03;;
36241;SDS011;22283;42.748;12.732;2023-03-20T15:54:20;21.92;;;4.63;;
36241;SDS011;22283;42.748;12.732;2023-03-20T15:59:22;11.83;;;4.70;;
36241;SDS011;22283;42.748;12.732;2023-03-20T16:04:25;12.35;;;5.57;;
36241;SDS011;22283;42.748;12.732;2023-03-20T16:09:29;16.25;;;4.90;;
36241;SDS011;22283;42.748;12.732;2023-03-20T16:14:30;22.10;;;3.78;;
36241;SDS011;22283;42.748;12.732;2023-03-20T16:19:32;11.95;;;3.60;;
36241;SDS011;22283;42.748;12.732;2023-03-20T16:24:34;8.97;;;2.90;;
36241;SDS011;22283;42.748;12.732;2023-03-20T16:29:36;11.48;;;4.00;;
36241;SDS011;22283;42.748;12.732;2023-03-20T16:34:44;18.15;;;4.00;;
36241;SDS011;22283;42.748;12.732;2023-03-20T16:40:00;26.27;;;3.60;;
36241;SDS011;22283;42.748;12.732;2023-03-20T16:45:03;9.15;;;2.80;;
36241;SDS011;22283;42.748;12.732;2023-03-20T16:55:20;7.15;;;2.58;;
36241;SDS011;22283;42.748;12.732;2023-03-20T17:00:28;6.65;;;3.85;;
36241;SDS011;22283;42.748;12.732;2023-03-20T17:15:56;15.55;;;5.80;;
36241;SDS011;22283;42.748;12.732;2023-03-20T17:20:58;18.15;;;8.63;;
36241;SDS011;22283;42.748;12.732;2023-03-20T17:25:59;14.30;;;6.33;;
36241;SDS011;22283;42.748;12.732;2023-03-20T17:31:00;9.30;;;4.60;;
36241;SDS011;22283;42.748;12.732;2023-03-20T17:36:08;9.98;;;5.00;;
36241;SDS011;22283;42.748;12.732;2023-03-20T17:41:16;4.90;;;3.15;;
36241;SDS011;22283;42.748;12.732;2023-03-20T17:46:18;7.63;;;4.85;;
36241;SDS011;22283;42.748;12.732;2023-03-20T17:51:29;5.38;;;4.55;;
36241;SDS011;22283;42.748;12.732;2023-03-20T17:56:30;8.57;;;6.27;;
36241;SDS011;22283;42.748;12.732;2023-03-20T18:06:32;9.10;;;6.95;;
36241;SDS011;22283;42.748;12.732;2023-03-20T18:11:33;12.10;;;9.67;;
36241;SDS011;22283;42.748;12.732;2023-03-20T18:16:33;17.57;;;11.90;;
36241;SDS011;22283;42.748;12.732;2023-03-20T18:21:34;16.20;;;10.87;;
36241;SDS011;22283;42.748;12.732;2023-03-20T18:26:35;11.63;;;9.07;;
36241;SDS011;22283;42.748;12.732;2023-03-20T18:31:35;9.53;;;6.90;;
36241;SDS011;22283;42.748;12.732;2023-03-20T18:36:36;9.63;;;7.17;;
36241;SDS011;22283;42.748;12.732;2023-03-20T18:41:36;6.87;;;5.57;;
36241;SDS011;22283;42.748;12.732;2023-03-20T18:46:37;9.17;;;6.30;;
36241;SDS011;22283;42.748;12.732;2023-03-20T18:51:38;8.23;;;5.67;;
36241;SDS011;22283;42.748;12.732;2023-03-20T18:56:38;8.97;;;6.93;;
36241;SDS011;22283;42.748;12.732;2023-03-20T19:01:39;6.75;;;5.53;;
36241;SDS011;22283;42.748;12.732;2023-03-20T19:06:40;6.70;;;4.70;;
36241;SDS011;22283;42.748;12.732;2023-03-20T19:11:41;6.63;;;5.23;;
36241;SDS011;22283;42.748;12.732;2023-03-20T19:16:41;8.30;;;5.90;;
36241;SDS011;22283;42.748;12.732;2023-03-20T19:21:42;12.07;;;8.70;;
36241;SDS011;22283;42.748;12.732;2023-03-20T19:26:43;16.03;;;10.53;;
36241;SDS011;22283;42.748;12.732;2023-03-20T19:36:45;6.13;;;4.15;;
36241;SDS011;22283;42.748;12.732;2023-03-20T19:41:48;8.45;;;4.00;;
36241;SDS011;22283;42.748;12.732;2023-03-20T19:46:49;7.10;;;5.38;;
36241;SDS011;22283;42.748;12.732;2023-03-20T19:51:50;10.13;;;7.40;;
36241;SDS011;22283;42.748;12.732;2023-03-20T19:56:50;8.43;;;6.73;;
36241;SDS011;22283;42.748;12.732;2023-03-20T20:01:51;19.03;;;14.73;;
36241;SDS011;22283;42.748;12.732;2023-03-20T20:11:53;11.90;;;8.10;;
36241;SDS011;22283;42.748;12.732;2023-03-20T20:16:54;9.00;;;7.20;;
36241;SDS011;22283;42.748;12.732;2023-03-20T20:21:55;11.30;;;6.83;;
36241;SDS011;22283;42.748;12.732;2023-03-20T20:26:55;16.37;;;12.70;;
36241;SDS011;22283;42.748;12.732;2023-03-20T20:31:58;12.52;;;9.30;;
36241;SDS011;22283;42.748;12.732;2023-03-20T20:36:59;12.75;;;10.32;;
36241;SDS011;22283;42.748;12.732;2023-03-20T20:41:59;22.17;;;16.57;;
36241;SDS011;22283;42.748;12.732;2023-03-20T20:47:00;21.83;;;15.13;;
36241;SDS011;22283;42.748;12.732;2023-03-20T20:52:01;19.93;;;17.10;;
36241;SDS011;22283;42.748;12.732;2023-03-20T20:57:02;20.38;;;15.45;;
36241;SDS011;22283;42.748;12.732;2023-03-20T21:02:04;21.57;;;18.07;;
36241;SDS011;22283;42.748;12.732;2023-03-20T21:07:10;24.23;;;18.30;;
36241;SDS011;22283;42.748;12.732;2023-03-20T21:12:12;21.23;;;18.73;;
36241;SDS011;22283;42.748;12.732;2023-03-20T21:17:14;25.40;;;21.20;;
36241;SDS011;22283;42.748;12.732;2023-03-20T21:22:15;22.50;;;18.67;;
36241;SDS011;22283;42.748;12.732;2023-03-20T21:27:16;19.30;;;16.45;;
36241;SDS011;22283;42.748;12.732;2023-03-20T21:32:19;20.55;;;16.77;;
36241;SDS011;22283;42.748;12.732;2023-03-20T21:37:20;19.65;;;16.17;;
36241;SDS011;22283;42.748;12.732;2023-03-20T21:42:20;25.57;;;18.83;;
36241;SDS011;22283;42.748;12.732;2023-03-20T21:47:21;17.83;;;14.73;;
36241;SDS011;22283;42.748;12.732;2023-03-20T21:52:22;13.35;;;11.75;;
36241;SDS011;22283;42.748;12.732;2023-03-20T21:57:23;18.40;;;12.63;;
36241;SDS011;22283;42.748;12.732;2023-03-20T22:02:24;16.10;;;12.97;;
36241;SDS011;22283;42.748;12.732;2023-03-20T22:07:25;14.20;;;10.07;;
36241;SDS011;22283;42.748;12.732;2023-03-20T22:12:25;15.10;;;12.73;;
36241;SDS011;22283;42.748;12.732;2023-03-20T22:17:27;18.40;;;13.70;;
36241;SDS011;22283;42.748;12.732;2023-03-20T22:22:28;17.80;;;15.07;;
36241;SDS011;22283;42.748;12.732;2023-03-20T22:27:28;21.63;;;18.80;;
36241;SDS011;22283;42.748;12.732;2023-03-20T22:32:29;23.00;;;18.77;;
36241;SDS011;22283;42.748;12.732;2023-03-20T22:37:29;28.07;;;22.80;;
36241;SDS011;22283;42.748;12.732;2023-03-20T22:42:31;33.80;;;24.25;;
36241;SDS011;22283;42.748;12.732;2023-03-20T22:47:31;32.17;;;25.10;;
36241;SDS011;22283;42.748;12.732;2023-03-20T22:52:33;37.05;;;27.27;;
36241;SDS011;22283;42.748;12.732;2023-03-20T22:57:34;49.40;;;35.53;;
36241;SDS011;22283;42.748;12.732;2023-03-20T23:02:35;45.33;;;29.87;;
36241;SDS011;22283;42.748;12.732;2023-03-20T23:07:36;40.63;;;31.40;;
36241;SDS011;22283;42.748;12.732;2023-03-20T23:12:37;45.22;;;33.75;;
36241;SDS011;22283;42.748;12.732;2023-03-20T23:17:38;47.88;;;32.88;;
36241;SDS011;22283;42.748;12.732;2023-03-20T23:22:39;44.73;;;32.97;;
36241;SDS011;22283;42.748;12.732;2023-03-20T23:27:39;38.17;;;27.80;;
36241;SDS011;22283;42.748;12.732;2023-03-20T23:32:40;37.60;;;26.17;;
36241;SDS011;22283;42.748;12.732;2023-03-20T23:37:41;41.10;;;31.17;;
36241;SDS011;22283;42.748;12.732;2023-03-20T23:42:42;42.50;;;30.00;;
36241;SDS011;22283;42.748;12.732;2023-03-20T23:47:43;36.20;;;25.47;;
36241;SDS011;22283;42.748;12.732;2023-03-20T23:52:43;31.73;;;24.33;;
36241;SDS011;22283;42.748;12.732;2023-03-20T23:57:44;36.97;;;28.67;;
